sensor_id;sensor_type;location;lat;lon;timestamp;pressure;altitude;pressure_sealevel;temperature;humidity
76086;BME280;64791;0.000;0.000;2023-07-31T00:01:48;93491.75;;;20.01;64.74
76086;BME280;64791;0.000;0.000;2023-07-31T00:04:13;93488.25;;;20.14;63.35
76086;BME280;64791;0.000;0.000;2023-07-31T00:06:39;93493.44;;;20.20;64.28
76086;BME280;64791;0.000;0.000;2023-07-31T00:09:05;93497.38;;;20.15;64.45
76086;BME280;64791;0.000;0.000;2023-07-31T00:11:30;93494.34;;;19.97;64.13
76086;BME280;64791;0.000;0.000;2023-07-31T00:13:56;93489.75;;;19.90;65.28
76086;BME280;64791;0.000;0.000;2023-07-31T00:16:21;93487.41;;;20.12;65.50
76086;BME280;64791;0.000;0.000;2023-07-31T00:18:47;93492.09;;;20.21;65.46
76086;BME280;64791;0.000;0.000;2023-07-31T00:21:12;93495.81;;;20.12;65.21
76086;BME280;64791;0.000;0.000;2023-07-31T00:23:38;93497.88;;;20.11;64.98
76086;BME280;64791;0.000;0.000;2023-07-31T00:26:04;93494.50;;;19.88;66.20
76086;BME280;64791;0.000;0.000;2023-07-31T00:28:29;93487.75;;;19.66;67.07
76086;BME280;64791;0.000;0.000;2023-07-31T00:30:55;93482.72;;;19.50;67.53
76086;BME280;64791;0.000;0.000;2023-07-31T00:33:24;93488.38;;;19.39;68.11
76086;BME280;64791;0.000;0.000;2023-07-31T00:35:50;93486.25;;;19.26;68.06
76086;BME280;64791;0.000;0.000;2023-07-31T00:38:17;93487.50;;;19.11;68.82
76086;BME280;64791;0.000;0.000;2023-07-31T00:40:43;93488.81;;;18.85;70.32
76086;BME280;64791;0.000;0.000;2023-07-31T00:43:09;93482.16;;;18.78;70.64
76086;BME280;64791;0.000;0.000;2023-07-31T00:45:35;93474.63;;;19.06;69.49
76086;BME280;64791;0.000;0.000;2023-07-31T00:48:00;93467.31;;;19.13;69.45
76086;BME280;64791;0.000;0.000;2023-07-31T00:50:26;93449.88;;;19.01;69.87
76086;BME280;64791;0.000;0.000;2023-07-31T00:52:53;93439.97;;;19.11;70.01
76086;BME280;64791;0.000;0.000;2023-07-31T00:55:19;93439.31;;;18.99;70.29
76086;BME280;64791;0.000;0.000;2023-07-31T00:57:47;93431.97;;;18.80;71.22
76086;BME280;64791;0.000;0.000;2023-07-31T01:00:13;93431.81;;;18.90;70.72
76086;BME280;64791;0.000;0.000;2023-07-31T01:02:39;93436.63;;;19.01;70.58
76086;BME280;64791;0.000;0.000;2023-07-31T01:05:05;93441.63;;;19.28;70.11
76086;BME280;64791;0.000;0.000;2023-07-31T01:07:35;93451.59;;;19.31;68.92
76086;BME280;64791;0.000;0.000;2023-07-31T01:10:09;93437.06;;;19.09;69.81
76086;BME280;64791;0.000;0.000;2023-07-31T01:12:36;93440.66;;;19.23;69.29
76086;BME280;64791;0.000;0.000;2023-07-31T01:17:29;93443.41;;;19.10;70.16
76086;BME280;64791;0.000;0.000;2023-07-31T01:19:55;93437.63;;;19.19;69.88
76086;BME280;64791;0.000;0.000;2023-07-31T01:22:29;93435.00;;;19.35;69.18
76086;BME280;64791;0.000;0.000;2023-07-31T01:27:23;93442.00;;;19.47;68.86
76086;BME280;64791;0.000;0.000;2023-07-31T01:32:18;93423.75;;;19.46;68.16
76086;BME280;64791;0.000;0.000;2023-07-31T01:34:45;93424.03;;;19.39;67.09
76086;BME280;64791;0.000;0.000;2023-07-31T01:37:11;93426.09;;;19.38;68.12
76086;BME280;64791;0.000;0.000;2023-07-31T01:39:36;93421.19;;;19.50;66.94
76086;BME280;64791;0.000;0.000;2023-07-31T01:42:02;93425.84;;;19.59;66.60
76086;BME280;64791;0.000;0.000;2023-07-31T01:44:28;93425.84;;;19.59;67.11
76086;BME280;64791;0.000;0.000;2023-07-31T01:46:54;93422.53;;;19.63;66.30
76086;BME280;64791;0.000;0.000;2023-07-31T01:49:19;93427.59;;;19.53;66.68
76086;BME280;64791;0.000;0.000;2023-07-31T01:51:45;93415.69;;;19.52;67.78
76086;BME280;64791;0.000;0.000;2023-07-31T01:54:10;93412.78;;;19.50;68.37
76086;BME280;64791;0.000;0.000;2023-07-31T01:56:36;93419.22;;;19.67;67.95
76086;BME280;64791;0.000;0.000;2023-07-31T01:59:02;93432.09;;;19.72;67.08
76086;BME280;64791;0.000;0.000;2023-07-31T02:01:27;93432.28;;;19.62;68.08
76086;BME280;64791;0.000;0.000;2023-07-31T02:03:53;93440.69;;;19.76;68.24
76086;BME280;64791;0.000;0.000;2023-07-31T02:06:21;93431.25;;;19.69;67.42
76086;BME280;64791;0.000;0.000;2023-07-31T02:08:48;93440.88;;;19.66;68.65
76086;BME280;64791;0.000;0.000;2023-07-31T02:11:13;93444.63;;;19.71;68.28
76086;BME280;64791;0.000;0.000;2023-07-31T02:13:39;93444.09;;;19.60;68.95
76086;BME280;64791;0.000;0.000;2023-07-31T02:16:04;93442.44;;;19.69;68.77
76086;BME280;64791;0.000;0.000;2023-07-31T02:18:30;93445.84;;;19.54;69.08
76086;BME280;64791;0.000;0.000;2023-07-31T02:20:56;93445.84;;;19.54;69.43
76086;BME280;64791;0.000;0.000;2023-07-31T02:23:21;93445.13;;;19.67;70.05
76086;BME280;64791;0.000;0.000;2023-07-31T02:25:47;93457.91;;;19.70;69.83
76086;BME280;64791;0.000;0.000;2023-07-31T02:28:13;93459.81;;;19.54;70.51
76086;BME280;64791;0.000;0.000;2023-07-31T02:30:39;93464.41;;;19.75;69.10
76086;BME280;64791;0.000;0.000;2023-07-31T02:33:07;93468.69;;;19.76;69.09
76086;BME280;64791;0.000;0.000;2023-07-31T02:35:32;93466.72;;;19.78;70.18
76086;BME280;64791;0.000;0.000;2023-07-31T02:37:59;93468.06;;;19.77;69.29
76086;BME280;64791;0.000;0.000;2023-07-31T02:40:24;93467.03;;;19.84;69.33
76086;BME280;64791;0.000;0.000;2023-07-31T02:42:50;93471.47;;;19.76;70.40
76086;BME280;64791;0.000;0.000;2023-07-31T02:45:15;93469.53;;;19.78;69.26
76086;BME280;64791;0.000;0.000;2023-07-31T02:47:41;93461.72;;;19.77;69.43
76086;BME280;64791;0.000;0.000;2023-07-31T02:50:07;93464.31;;;19.73;70.38
76086;BME280;64791;0.000;0.000;2023-07-31T02:52:32;93463.81;;;19.76;69.39
76086;BME280;64791;0.000;0.000;2023-07-31T02:54:58;93461.44;;;19.84;69.38
76086;BME280;64791;0.000;0.000;2023-07-31T02:57:23;93458.13;;;19.74;69.13
76086;BME280;64791;0.000;0.000;2023-07-31T02:59:49;93459.97;;;19.83;69.30
76086;BME280;64791;0.000;0.000;2023-07-31T03:02:14;93466.41;;;19.86;68.89
76086;BME280;64791;0.000;0.000;2023-07-31T03:04:40;93463.50;;;19.84;69.64
76086;BME280;64791;0.000;0.000;2023-07-31T03:07:05;93463.53;;;19.97;69.44
76086;BME280;64791;0.000;0.000;2023-07-31T03:09:31;93470.25;;;19.92;68.64
76086;BME280;64791;0.000;0.000;2023-07-31T03:11:57;93470.38;;;19.94;69.58
76086;BME280;64791;0.000;0.000;2023-07-31T03:14:22;93468.41;;;19.97;70.04
76086;BME280;64791;0.000;0.000;2023-07-31T03:16:48;93473.16;;;19.94;69.87
76086;BME280;64791;0.000;0.000;2023-07-31T03:19:14;93476.91;;;19.99;69.65
76086;BME280;64791;0.000;0.000;2023-07-31T03:21:39;93472.66;;;19.98;69.87
76086;BME280;64791;0.000;0.000;2023-07-31T03:24:05;93473.91;;;19.95;69.53
76086;BME280;64791;0.000;0.000;2023-07-31T03:26:31;93473.06;;;19.92;69.61
76086;BME280;64791;0.000;0.000;2023-07-31T03:28:57;93478.25;;;19.98;70.18
76086;BME280;64791;0.000;0.000;2023-07-31T03:31:22;93479.59;;;19.97;69.21
76086;BME280;64791;0.000;0.000;2023-07-31T03:33:48;93470.69;;;20.00;69.74
76086;BME280;64791;0.000;0.000;2023-07-31T03:36:13;93475.13;;;19.92;69.18
76086;BME280;64791;0.000;0.000;2023-07-31T03:38:39;93490.69;;;19.95;68.98
76086;BME280;64791;0.000;0.000;2023-07-31T03:41:06;93481.47;;;19.92;69.82
76086;BME280;64791;0.000;0.000;2023-07-31T03:43:32;93491.63;;;19.99;70.61
76086;BME280;64791;0.000;0.000;2023-07-31T03:46:00;93482.50;;;19.99;70.51
76086;BME280;64791;0.000;0.000;2023-07-31T03:48:26;93492.97;;;19.98;68.96
76086;BME280;64791;0.000;0.000;2023-07-31T03:50:52;93492.81;;;20.08;70.32
76086;BME280;64791;0.000;0.000;2023-07-31T03:53:17;93495.28;;;20.02;69.39
76086;BME280;64791;0.000;0.000;2023-07-31T03:55:43;93495.09;;;20.11;70.38
76086;BME280;64791;0.000;0.000;2023-07-31T03:58:08;93494.50;;;20.13;70.34
76086;BME280;64791;0.000;0.000;2023-07-31T04:00:34;93498.63;;;20.12;70.05
76086;BME280;64791;0.000;0.000;2023-07-31T04:03:00;93501.84;;;20.20;69.98
76086;BME280;64791;0.000;0.000;2023-07-31T04:05:25;93503.50;;;20.11;70.01
76086;BME280;64791;0.000;0.000;2023-07-31T04:07:51;93502.19;;;20.26;70.29
76086;BME280;64791;0.000;0.000;2023-07-31T04:10:16;93507.16;;;20.27;70.14
76086;BME280;64791;0.000;0.000;2023-07-31T04:12:42;93509.94;;;20.27;69.78
76086;BME280;64791;0.000;0.000;2023-07-31T04:15:08;93514.00;;;20.11;69.59
76086;BME280;64791;0.000;0.000;2023-07-31T04:17:34;93514.50;;;20.21;70.02
76086;BME280;64791;0.000;0.000;2023-07-31T04:19:59;93513.78;;;20.20;68.94
76086;BME280;64791;0.000;0.000;2023-07-31T04:22:25;93510.44;;;20.24;69.40
76086;BME280;64791;0.000;0.000;2023-07-31T04:24:50;93514.59;;;20.23;68.85
76086;BME280;64791;0.000;0.000;2023-07-31T04:27:16;93503.63;;;20.41;69.02
76086;BME280;64791;0.000;0.000;2023-07-31T04:29:42;93511.72;;;20.48;68.66
76086;BME280;64791;0.000;0.000;2023-07-31T04:32:09;93513.06;;;20.33;68.91
76086;BME280;64791;0.000;0.000;2023-07-31T04:34:35;93515.44;;;20.25;68.36
76086;BME280;64791;0.000;0.000;2023-07-31T04:37:00;93502.19;;;20.26;68.39
76086;BME280;64791;0.000;0.000;2023-07-31T04:39:26;93513.66;;;20.05;69.03
76086;BME280;64791;0.000;0.000;2023-07-31T04:41:52;93510.75;;;20.16;68.32
76086;BME280;64791;0.000;0.000;2023-07-31T04:44:17;93503.81;;;20.04;69.67
76086;BME280;64791;0.000;0.000;2023-07-31T04:46:43;93516.06;;;20.10;69.60
76086;BME280;64791;0.000;0.000;2023-07-31T04:49:08;93520.63;;;20.45;69.04
76086;BME280;64791;0.000;0.000;2023-07-31T04:51:34;93505.06;;;20.69;70.22
76086;BME280;64791;0.000;0.000;2023-07-31T04:53:59;93514.69;;;20.79;68.97
76086;BME280;64791;0.000;0.000;2023-07-31T04:56:25;93511.47;;;20.98;66.97
76086;BME280;64791;0.000;0.000;2023-07-31T04:58:51;93508.28;;;20.90;66.60
76086;BME280;64791;0.000;0.000;2023-07-31T05:01:17;93504.50;;;20.99;66.76
76086;BME280;64791;0.000;0.000;2023-07-31T05:03:42;93511.69;;;20.89;66.61
76086;BME280;64791;0.000;0.000;2023-07-31T05:06:08;93507.63;;;20.78;66.86
76086;BME280;64791;0.000;0.000;2023-07-31T05:08:34;93513.88;;;20.90;66.91
76086;BME280;64791;0.000;0.000;2023-07-31T05:11:00;93513.47;;;20.82;66.98
76086;BME280;64791;0.000;0.000;2023-07-31T05:13:26;93519.38;;;20.88;67.38
76086;BME280;64791;0.000;0.000;2023-07-31T05:15:51;93518.31;;;20.95;67.51
76086;BME280;64791;0.000;0.000;2023-07-31T05:18:17;93519.06;;;20.96;66.91
76086;BME280;64791;0.000;0.000;2023-07-31T05:20:43;93511.47;;;20.98;67.02
76086;BME280;64791;0.000;0.000;2023-07-31T05:23:09;93511.47;;;20.98;66.96
76086;BME280;64791;0.000;0.000;2023-07-31T05:25:34;93515.00;;;20.99;65.09
76086;BME280;64791;0.000;0.000;2023-07-31T05:28:00;93508.16;;;20.88;64.78
76086;BME280;64791;0.000;0.000;2023-07-31T05:30:25;93510.75;;;20.98;66.43
76086;BME280;64791;0.000;0.000;2023-07-31T05:32:51;93509.44;;;21.14;67.01
76086;BME280;64791;0.000;0.000;2023-07-31T05:35:17;93501.13;;;21.17;64.71
76086;BME280;64791;0.000;0.000;2023-07-31T05:37:43;93510.81;;;21.13;65.18
76086;BME280;64791;0.000;0.000;2023-07-31T05:40:08;93509.97;;;21.25;65.48
76086;BME280;64791;0.000;0.000;2023-07-31T05:42:34;93510.72;;;21.41;65.79
76086;BME280;64791;0.000;0.000;2023-07-31T05:45:02;93507.19;;;21.69;66.27
76086;BME280;64791;0.000;0.000;2023-07-31T05:47:28;93506.31;;;21.96;65.47
76086;BME280;64791;0.000;0.000;2023-07-31T05:49:54;93515.75;;;21.87;63.59
76086;BME280;64791;0.000;0.000;2023-07-31T05:52:20;93511.47;;;21.86;63.11
76086;BME280;64791;0.000;0.000;2023-07-31T05:54:45;93509.31;;;22.00;62.27
76086;BME280;64791;0.000;0.000;2023-07-31T05:57:11;93514.91;;;22.00;63.70
76086;BME280;64791;0.000;0.000;2023-07-31T05:59:36;93522.25;;;21.92;63.10
76086;BME280;64791;0.000;0.000;2023-07-31T06:02:02;93507.78;;;21.97;61.79
76086;BME280;64791;0.000;0.000;2023-07-31T06:04:28;93513.50;;;22.15;62.01
76086;BME280;64791;0.000;0.000;2023-07-31T06:06:53;93514.50;;;22.37;62.61
76086;BME280;64791;0.000;0.000;2023-07-31T06:09:19;93508.75;;;22.66;62.02
76086;BME280;64791;0.000;0.000;2023-07-31T06:11:46;93513.78;;;22.85;64.14
76086;BME280;64791;0.000;0.000;2023-07-31T06:14:11;93513.63;;;22.81;59.15
76086;BME280;64791;0.000;0.000;2023-07-31T06:16:37;93510.34;;;23.20;59.97
76086;BME280;64791;0.000;0.000;2023-07-31T06:19:03;93508.84;;;23.52;58.06
76086;BME280;64791;0.000;0.000;2023-07-31T06:21:29;93511.31;;;23.44;56.63
76086;BME280;64791;0.000;0.000;2023-07-31T06:23:55;93512.13;;;23.64;58.27
76086;BME280;64791;0.000;0.000;2023-07-31T06:26:21;93510.75;;;24.00;56.02
76086;BME280;64791;0.000;0.000;2023-07-31T06:28:46;93510.78;;;23.65;56.42
76086;BME280;64791;0.000;0.000;2023-07-31T06:31:12;93516.78;;;23.58;53.81
76086;BME280;64791;0.000;0.000;2023-07-31T06:33:38;93510.28;;;23.71;54.81
76086;BME280;64791;0.000;0.000;2023-07-31T06:36:04;93511.38;;;24.17;54.29
76086;BME280;64791;0.000;0.000;2023-07-31T06:38:29;93504.19;;;24.70;51.15
76086;BME280;64791;0.000;0.000;2023-07-31T06:40:55;93506.63;;;24.80;52.77
76086;BME280;64791;0.000;0.000;2023-07-31T06:43:21;93510.72;;;24.97;51.65
76086;BME280;64791;0.000;0.000;2023-07-31T06:45:47;93504.50;;;25.20;49.77
76086;BME280;64791;0.000;0.000;2023-07-31T06:48:15;93495.75;;;25.55;47.45
76086;BME280;64791;0.000;0.000;2023-07-31T06:50:41;93497.53;;;25.66;48.59
76086;BME280;64791;0.000;0.000;2023-07-31T06:53:06;93502.22;;;26.03;49.73
76086;BME280;64791;0.000;0.000;2023-07-31T06:55:32;93511.81;;;26.39;48.60
76086;BME280;64791;0.000;0.000;2023-07-31T06:57:58;93515.66;;;26.75;46.14
76086;BME280;64791;0.000;0.000;2023-07-31T07:00:25;93513.00;;;26.81;45.33
76086;BME280;64791;0.000;0.000;2023-07-31T07:02:50;93514.56;;;26.86;45.29
76086;BME280;64791;0.000;0.000;2023-07-31T07:05:16;93506.78;;;26.36;44.72
76086;BME280;64791;0.000;0.000;2023-07-31T07:07:42;93511.56;;;26.31;45.16
76086;BME280;64791;0.000;0.000;2023-07-31T07:10:08;93528.53;;;26.07;46.25
76086;BME280;64791;0.000;0.000;2023-07-31T07:12:35;93524.34;;;25.87;45.79
76086;BME280;64791;0.000;0.000;2023-07-31T07:15:00;93529.22;;;25.63;46.84
76086;BME280;64791;0.000;0.000;2023-07-31T07:17:27;93531.56;;;25.70;45.94
76086;BME280;64791;0.000;0.000;2023-07-31T07:19:53;93523.16;;;26.17;47.46
76086;BME280;64791;0.000;0.000;2023-07-31T07:22:19;93526.91;;;26.97;45.71
76086;BME280;64791;0.000;0.000;2023-07-31T07:24:44;93519.19;;;26.99;44.71
76086;BME280;64791;0.000;0.000;2023-07-31T07:27:10;93517.69;;;26.47;45.45
76086;BME280;64791;0.000;0.000;2023-07-31T07:29:37;93526.16;;;26.71;44.13
76086;BME280;64791;0.000;0.000;2023-07-31T07:32:03;93529.47;;;27.13;44.67
76086;BME280;64791;0.000;0.000;2023-07-31T07:34:29;93525.25;;;26.90;45.28
76086;BME280;64791;0.000;0.000;2023-07-31T07:36:55;93529.13;;;26.51;44.47
76086;BME280;64791;0.000;0.000;2023-07-31T07:39:20;93527.75;;;27.01;42.62
76086;BME280;64791;0.000;0.000;2023-07-31T07:41:46;93518.63;;;27.05;42.53
76086;BME280;64791;0.000;0.000;2023-07-31T07:44:12;93529.16;;;27.56;42.83
76086;BME280;64791;0.000;0.000;2023-07-31T07:46:38;93526.81;;;27.76;42.05
76086;BME280;64791;0.000;0.000;2023-07-31T07:49:04;93521.47;;;27.33;43.01
76086;BME280;64791;0.000;0.000;2023-07-31T07:51:29;93534.53;;;26.92;43.29
76086;BME280;64791;0.000;0.000;2023-07-31T07:53:57;93541.03;;;27.23;42.85
76086;BME280;64791;0.000;0.000;2023-07-31T07:56:23;93538.88;;;27.21;41.48
76086;BME280;64791;0.000;0.000;2023-07-31T07:58:49;93547.69;;;26.82;42.57
76086;BME280;64791;0.000;0.000;2023-07-31T08:01:15;93542.75;;;26.57;42.87
76086;BME280;64791;0.000;0.000;2023-07-31T08:03:41;93544.56;;;26.46;42.79
76086;BME280;64791;0.000;0.000;2023-07-31T08:06:06;93538.38;;;27.29;42.09
76086;BME280;64791;0.000;0.000;2023-07-31T08:08:34;93529.03;;;28.09;40.71
76086;BME280;64791;0.000;0.000;2023-07-31T08:11:00;93521.13;;;28.06;39.41
76086;BME280;64791;0.000;0.000;2023-07-31T08:13:26;93540.09;;;27.97;39.94
76086;BME280;64791;0.000;0.000;2023-07-31T08:15:52;93537.09;;;27.61;41.32
76086;BME280;64791;0.000;0.000;2023-07-31T08:18:17;93538.00;;;27.42;40.99
76086;BME280;64791;0.000;0.000;2023-07-31T08:20:44;93539.00;;;27.25;41.44
76086;BME280;64791;0.000;0.000;2023-07-31T08:23:10;93527.13;;;27.88;39.86
76086;BME280;64791;0.000;0.000;2023-07-31T08:25:36;93543.69;;;28.00;40.72
76086;BME280;64791;0.000;0.000;2023-07-31T08:28:02;93535.19;;;28.00;40.46
76086;BME280;64791;0.000;0.000;2023-07-31T08:30:28;93533.00;;;28.59;39.36
76086;BME280;64791;0.000;0.000;2023-07-31T08:32:53;93531.25;;;29.52;40.11
76086;BME280;64791;0.000;0.000;2023-07-31T08:35:19;93532.09;;;29.58;36.90
76086;BME280;64791;0.000;0.000;2023-07-31T08:37:45;93529.16;;;29.94;35.40
76086;BME280;64791;0.000;0.000;2023-07-31T08:40:11;93528.22;;;30.27;35.57
76086;BME280;64791;0.000;0.000;2023-07-31T08:42:43;93530.31;;;30.72;34.10
76086;BME280;64791;0.000;0.000;2023-07-31T08:45:10;93523.97;;;30.76;34.75
76086;BME280;64791;0.000;0.000;2023-07-31T08:47:38;93524.88;;;30.93;33.48
76086;BME280;64791;0.000;0.000;2023-07-31T08:50:05;93528.53;;;30.99;33.92
76086;BME280;64791;0.000;0.000;2023-07-31T08:52:31;93532.41;;;31.28;33.49
76086;BME280;64791;0.000;0.000;2023-07-31T08:54:57;93532.06;;;31.62;32.52
76086;BME280;64791;0.000;0.000;2023-07-31T08:57:22;93538.00;;;31.18;32.76
76086;BME280;64791;0.000;0.000;2023-07-31T08:59:49;93542.56;;;30.33;33.12
76086;BME280;64791;0.000;0.000;2023-07-31T09:02:15;93533.34;;;29.47;33.20
76086;BME280;64791;0.000;0.000;2023-07-31T09:04:43;93519.75;;;29.85;35.14
76086;BME280;64791;0.000;0.000;2023-07-31T09:07:08;93535.03;;;30.52;36.02
76086;BME280;64791;0.000;0.000;2023-07-31T09:09:35;93530.72;;;30.51;32.59
76086;BME280;64791;0.000;0.000;2023-07-31T09:12:01;93523.84;;;30.18;32.80
76086;BME280;64791;0.000;0.000;2023-07-31T09:14:27;93522.53;;;29.81;33.26
76086;BME280;64791;0.000;0.000;2023-07-31T09:16:56;93523.91;;;30.22;32.46
76086;BME280;64791;0.000;0.000;2023-07-31T09:19:27;93517.47;;;29.76;33.20
76086;BME280;64791;0.000;0.000;2023-07-31T09:21:53;93514.72;;;29.82;34.09
76086;BME280;64791;0.000;0.000;2023-07-31T09:24:28;93520.00;;;30.47;33.96
76086;BME280;64791;0.000;0.000;2023-07-31T09:26:55;93512.19;;;31.04;32.90
76086;BME280;64791;0.000;0.000;2023-07-31T09:29:22;93511.34;;;31.57;31.54
76086;BME280;64791;0.000;0.000;2023-07-31T09:31:48;93508.00;;;31.85;28.61
76086;BME280;64791;0.000;0.000;2023-07-31T09:34:14;93510.59;;;31.55;29.92
76086;BME280;64791;0.000;0.000;2023-07-31T09:36:44;93508.75;;;31.15;31.75
76086;BME280;64791;0.000;0.000;2023-07-31T09:39:10;93494.72;;;31.37;29.55
76086;BME280;64791;0.000;0.000;2023-07-31T09:41:37;93500.78;;;31.02;32.56
76086;BME280;64791;0.000;0.000;2023-07-31T09:44:03;93505.69;;;30.41;31.79
76086;BME280;64791;0.000;0.000;2023-07-31T09:46:29;93506.94;;;30.30;32.14
76086;BME280;64791;0.000;0.000;2023-07-31T09:49:08;93508.38;;;29.85;33.54
76086;BME280;64791;0.000;0.000;2023-07-31T09:51:35;93510.22;;;30.11;33.11
76086;BME280;64791;0.000;0.000;2023-07-31T09:54:08;93501.88;;;30.25;33.13
76086;BME280;64791;0.000;0.000;2023-07-31T09:56:35;93499.78;;;30.29;32.64
76086;BME280;64791;0.000;0.000;2023-07-31T09:59:01;93506.56;;;30.52;32.40
76086;BME280;64791;0.000;0.000;2023-07-31T10:01:29;93501.59;;;31.12;32.89
76086;BME280;64791;0.000;0.000;2023-07-31T10:03:55;93493.50;;;31.55;30.79
76086;BME280;64791;0.000;0.000;2023-07-31T10:06:23;93499.97;;;31.59;32.44
76086;BME280;64791;0.000;0.000;2023-07-31T10:08:49;93506.84;;;31.36;31.49
76086;BME280;64791;0.000;0.000;2023-07-31T10:11:17;93501.91;;;31.40;31.13
76086;BME280;64791;0.000;0.000;2023-07-31T10:13:42;93497.38;;;31.19;32.74
76086;BME280;64791;0.000;0.000;2023-07-31T10:16:08;93495.00;;;31.62;30.86
76086;BME280;64791;0.000;0.000;2023-07-31T10:18:34;93505.22;;;31.93;30.21
76086;BME280;64791;0.000;0.000;2023-07-31T10:21:00;93493.47;;;31.53;30.54
76086;BME280;64791;0.000;0.000;2023-07-31T10:23:26;93500.38;;;31.29;30.47
76086;BME280;64791;0.000;0.000;2023-07-31T10:25:52;93495.94;;;31.14;31.48
76086;BME280;64791;0.000;0.000;2023-07-31T10:28:19;93495.75;;;31.68;32.19
76086;BME280;64791;0.000;0.000;2023-07-31T10:30:45;93487.41;;;31.94;30.77
76086;BME280;64791;0.000;0.000;2023-07-31T10:33:11;93493.19;;;32.00;31.19
76086;BME280;64791;0.000;0.000;2023-07-31T10:35:37;93488.63;;;32.69;29.33
76086;BME280;64791;0.000;0.000;2023-07-31T10:38:12;93484.53;;;33.25;30.65
76086;BME280;64791;0.000;0.000;2023-07-31T10:40:38;93484.56;;;33.45;29.88
76086;BME280;64791;0.000;0.000;2023-07-31T10:43:04;93470.25;;;33.25;28.12
76086;BME280;64791;0.000;0.000;2023-07-31T10:45:37;93477.78;;;32.50;29.30
76086;BME280;64791;0.000;0.000;2023-07-31T10:48:07;93478.78;;;31.86;30.75
76086;BME280;64791;0.000;0.000;2023-07-31T10:50:38;93490.75;;;31.69;30.39
76086;BME280;64791;0.000;0.000;2023-07-31T10:53:04;93488.34;;;31.43;30.90
76086;BME280;64791;0.000;0.000;2023-07-31T10:55:38;93481.69;;;31.14;30.56
76086;BME280;64791;0.000;0.000;2023-07-31T10:58:11;93488.75;;;31.09;31.92
76086;BME280;64791;0.000;0.000;2023-07-31T11:00:41;93476.00;;;31.18;29.91
76086;BME280;64791;0.000;0.000;2023-07-31T11:03:08;93475.97;;;31.12;31.39
76086;BME280;64791;0.000;0.000;2023-07-31T11:08:24;93464.56;;;31.12;31.50
76086;BME280;64791;0.000;0.000;2023-07-31T11:10:51;93468.97;;;31.27;30.64
76086;BME280;64791;0.000;0.000;2023-07-31T11:13:30;93467.47;;;31.18;30.48
76086;BME280;64791;0.000;0.000;2023-07-31T11:15:56;93468.56;;;30.89;30.73
76086;BME280;64791;0.000;0.000;2023-07-31T11:18:23;93472.16;;;30.38;32.16
76086;BME280;64791;0.000;0.000;2023-07-31T11:20:49;93459.19;;;30.25;32.11
76086;BME280;64791;0.000;0.000;2023-07-31T11:23:15;93474.31;;;29.87;33.31
76086;BME280;64791;0.000;0.000;2023-07-31T11:25:42;93469.91;;;29.80;32.36
76086;BME280;64791;0.000;0.000;2023-07-31T11:28:11;93466.34;;;29.82;32.94
76086;BME280;64791;0.000;0.000;2023-07-31T11:30:37;93467.16;;;29.86;33.56
76086;BME280;64791;0.000;0.000;2023-07-31T11:33:04;93455.44;;;30.12;32.72
76086;BME280;64791;0.000;0.000;2023-07-31T11:35:34;93459.31;;;30.35;32.54
76086;BME280;64791;0.000;0.000;2023-07-31T11:38:01;93455.59;;;30.22;31.90
76086;BME280;64791;0.000;0.000;2023-07-31T11:40:27;93450.50;;;30.15;32.82
76086;BME280;64791;0.000;0.000;2023-07-31T11:42:57;93452.72;;;30.18;32.36
76086;BME280;64791;0.000;0.000;2023-07-31T11:45:26;93458.81;;;29.98;31.59
76086;BME280;64791;0.000;0.000;2023-07-31T11:47:53;93453.78;;;29.49;32.87
76086;BME280;64791;0.000;0.000;2023-07-31T11:50:19;93458.16;;;29.58;33.13
76086;BME280;64791;0.000;0.000;2023-07-31T11:52:45;93451.75;;;29.56;32.27
76086;BME280;64791;0.000;0.000;2023-07-31T11:55:11;93446.59;;;29.44;33.21
76086;BME280;64791;0.000;0.000;2023-07-31T11:57:38;93441.53;;;29.39;31.98
76086;BME280;64791;0.000;0.000;2023-07-31T12:00:06;93451.97;;;29.28;32.83
76086;BME280;64791;0.000;0.000;2023-07-31T12:02:32;93451.16;;;28.84;33.62
76086;BME280;64791;0.000;0.000;2023-07-31T12:04:58;93445.50;;;29.23;32.79
76086;BME280;64791;0.000;0.000;2023-07-31T12:07:24;93438.84;;;29.09;33.21
76086;BME280;64791;0.000;0.000;2023-07-31T12:09:51;93434.88;;;29.26;32.82
76086;BME280;64791;0.000;0.000;2023-07-31T12:12:24;93436.25;;;28.83;33.37
76086;BME280;64791;0.000;0.000;2023-07-31T12:14:50;93431.25;;;28.82;34.17
76086;BME280;64791;0.000;0.000;2023-07-31T12:17:17;93432.59;;;29.16;33.06
76086;BME280;64791;0.000;0.000;2023-07-31T12:19:44;93427.59;;;29.15;32.41
76086;BME280;64791;0.000;0.000;2023-07-31T12:22:11;93416.59;;;28.95;33.33
76086;BME280;64791;0.000;0.000;2023-07-31T12:24:37;93424.50;;;29.41;34.40
76086;BME280;64791;0.000;0.000;2023-07-31T12:27:13;93411.88;;;29.99;32.07
76086;BME280;64791;0.000;0.000;2023-07-31T12:29:39;93399.06;;;30.50;31.11
76086;BME280;64791;0.000;0.000;2023-07-31T12:32:19;93403.94;;;31.08;30.64
76086;BME280;64791;0.000;0.000;2023-07-31T12:34:45;93395.78;;;31.52;29.34
76086;BME280;64791;0.000;0.000;2023-07-31T12:37:10;93398.06;;;31.68;29.77
76086;BME280;64791;0.000;0.000;2023-07-31T12:39:36;93393.19;;;31.90;28.67
76086;BME280;64791;0.000;0.000;2023-07-31T12:42:02;93391.78;;;31.91;29.01
76086;BME280;64791;0.000;0.000;2023-07-31T12:44:28;93394.16;;;32.31;26.38
76086;BME280;64791;0.000;0.000;2023-07-31T12:46:54;93406.16;;;32.05;27.54
76086;BME280;64791;0.000;0.000;2023-07-31T12:49:19;93392.28;;;31.58;28.24
76086;BME280;64791;0.000;0.000;2023-07-31T12:51:45;93387.28;;;31.58;28.74
76086;BME280;64791;0.000;0.000;2023-07-31T12:54:11;93379.38;;;31.50;29.35
76086;BME280;64791;0.000;0.000;2023-07-31T12:56:37;93380.00;;;31.41;28.57
76086;BME280;64791;0.000;0.000;2023-07-31T12:59:03;93381.50;;;31.48;29.66
76086;BME280;64791;0.000;0.000;2023-07-31T13:01:29;93383.00;;;31.55;28.84
76086;BME280;64791;0.000;0.000;2023-07-31T13:03:54;93375.22;;;31.66;28.51
76086;BME280;64791;0.000;0.000;2023-07-31T13:06:20;93380.72;;;31.41;27.98
76086;BME280;64791;0.000;0.000;2023-07-31T13:08:46;93387.44;;;30.94;30.14
76086;BME280;64791;0.000;0.000;2023-07-31T13:11:12;93379.97;;;31.37;28.93
76086;BME280;64791;0.000;0.000;2023-07-31T13:13:37;93378.56;;;31.38;30.54
76086;BME280;64791;0.000;0.000;2023-07-31T13:16:03;93373.97;;;31.97;28.53